Time;durP1;ratioP1;P1;durP2;ratioP2;P2;SDS_P1;SDS_P2;PMS_P1;PMS_P2;Temp;Humidity;BMP_temperature;BMP_pressure;BME280_temperature;BME280_humidity;BME280_pressure;Samples;Min_cycle;Max_cycle;Signal;HPM_P1;HPM_P2
2023/02/19 00:01:07;;;;;;;4.77;4.47;;;;;;;7.28;100.00;97330.03;4999190;28;20428;-67
2023/02/19 00:03:35;;;;;;;5.40;5.10;;;;;;;7.28;100.00;97313.38;4995427;28;20236;-66
2023/02/19 00:06:05;;;;;;;5.20;4.90;;;;;;;7.28;100.00;97313.38;4972849;28;20668;-66
2023/02/19 00:08:34;;;;;;;5.37;5.03;;;;;;;7.26;100.00;97307.44;4996945;28;20208;-66
2023/02/19 00:11:02;;;;;;;5.50;4.97;;;;;;;7.28;100.00;97308.09;4991110;28;20303;-67
2023/02/19 00:13:30;;;;;;;5.30;5.00;;;;;;;7.23;100.00;97306.78;4957927;28;20601;-67
2023/02/19 00:15:58;;;;;;;5.17;4.83;;;;;;;7.24;100.00;97307.63;4994828;28;20211;-67
2023/02/19 00:18:25;;;;;;;5.47;5.07;;;;;;;7.18;100.00;97306.44;4997722;28;20696;-68
2023/02/19 00:20:55;;;;;;;5.53;5.13;;;;;;;7.20;100.00;97316.84;4971340;28;20205;-66
2023/02/19 00:23:25;;;;;;;5.00;4.60;;;;;;;7.15;100.00;97304.13;4993327;28;20232;-68
2023/02/19 00:25:53;;;;;;;4.87;4.57;;;;;;;7.16;100.00;97299.66;4991410;28;20209;-67
2023/02/19 00:28:21;;;;;;;4.80;4.50;;;;;;;7.11;100.00;97300.16;4955227;28;20621;-65
2023/02/19 00:30:49;;;;;;;5.10;4.70;;;;;;;7.07;100.00;97298.84;4991366;28;20449;-65
2023/02/19 00:33:16;;;;;;;5.03;4.73;;;;;;;7.05;100.00;97296.34;4997117;28;20221;-67
2023/02/19 00:35:44;;;;;;;4.43;4.17;;;;;;;7.09;100.00;97304.78;4983467;28;20244;-66
2023/02/19 00:38:12;;;;;;;5.10;4.80;;;;;;;7.06;100.00;97305.09;4995441;28;20218;-66
2023/02/19 00:40:41;;;;;;;5.13;4.83;;;;;;;7.06;100.00;97303.25;4996285;28;20203;-66
2023/02/19 00:43:08;;;;;;;4.97;4.67;;;;;;;7.06;100.00;97307.72;4956232;28;20240;-67
2023/02/19 00:45:36;;;;;;;4.90;4.60;;;;;;;7.00;100.00;97289.88;4997460;28;20213;-66
2023/02/19 00:48:03;;;;;;;5.30;5.00;;;;;;;7.02;100.00;97293.22;4989336;28;20341;-66
2023/02/19 00:50:31;;;;;;;5.27;4.87;;;;;;;6.96;100.00;97305.19;4996177;28;20201;-67
2023/02/19 00:52:58;;;;;;;4.47;4.13;;;;;;;6.95;100.00;97304.38;4971715;28;20554;-67
2023/02/19 00:55:26;;;;;;;5.00;4.70;;;;;;;6.92;100.00;97315.22;4998161;28;21284;-67
2023/02/19 00:57:55;;;;;;;4.33;4.03;;;;;;;6.89;100.00;97312.91;4991316;28;20386;-66
2023/02/19 01:00:23;;;;;;;5.10;4.80;;;;;;;6.84;100.00;97309.91;4955524;28;20405;-65
2023/02/19 01:02:50;;;;;;;5.27;4.77;;;;;;;6.77;100.00;97317.59;4988395;28;20240;-64
2023/02/19 01:05:18;;;;;;;4.80;4.50;;;;;;;6.67;100.00;97327.44;4998552;28;20214;-65
2023/02/19 01:07:45;;;;;;;5.00;4.70;;;;;;;6.61;100.00;97328.06;4983248;28;20215;-65
2023/02/19 01:10:13;;;;;;;5.43;5.03;;;;;;;6.57;100.00;97330.16;5003577;28;20203;-67
2023/02/19 01:12:40;;;;;;;4.70;4.40;;;;;;;6.54;100.00;97330.47;5002023;28;20583;-65
2023/02/19 01:15:10;;;;;;;5.40;5.10;;;;;;;6.50;100.00;97327.34;4955673;28;21366;-66
2023/02/19 01:17:37;;;;;;;5.67;5.27;;;;;;;6.46;100.00;97315.47;5000132;28;20700;-64
2023/02/19 01:20:05;;;;;;;5.33;5.03;;;;;;;6.45;100.00;97320.88;5000090;28;20493;-66
2023/02/19 01:22:33;;;;;;;5.37;4.97;;;;;;;6.42;100.00;97329.09;4994695;28;20239;-65
2023/02/19 01:25:01;;;;;;;4.70;4.40;;;;;;;6.42;100.00;97321.19;4978923;28;20312;-66
2023/02/19 01:27:29;;;;;;;5.07;4.77;;;;;;;6.39;100.00;97317.06;5004919;28;20200;-67
2023/02/19 01:29:56;;;;;;;5.40;5.10;;;;;;;6.39;100.00;97317.06;4953599;28;20584;-65
2023/02/19 01:32:25;;;;;;;5.03;4.73;;;;;;;6.34;100.00;97311.44;4998278;28;20224;-67
2023/02/19 01:34:52;;;;;;;4.80;4.50;;;;;;;6.33;100.00;97310.63;4995342;28;20211;-67
2023/02/19 01:37:20;;;;;;;5.10;4.80;;;;;;;6.32;100.00;97306.34;5002439;28;20205;-67
2023/02/19 01:39:47;;;;;;;5.10;4.80;;;;;;;6.34;100.00;97304.38;4977580;28;20221;-65
2023/02/19 01:42:16;;;;;;;5.80;5.20;;;;;;;6.30;100.00;97305.66;4997077;28;20212;-68
2023/02/19 01:45:23;;;;;;;5.67;5.30;;;;;;;6.27;100.00;97300.72;4997275;28;20789;-66
2023/02/19 01:47:57;;;;;;;5.43;5.03;;;;;;;6.25;100.00;97294.78;4952364;28;20205;-66
2023/02/19 01:50:28;;;;;;;5.10;4.70;;;;;;;6.27;100.00;97295.44;5003546;28;20200;-67
2023/02/19 01:52:56;;;;;;;5.03;4.63;;;;;;;6.21;100.00;97280.25;4992163;28;20322;-68
2023/02/19 01:55:24;;;;;;;5.20;4.90;;;;;;;6.19;100.00;97280.41;4983151;28;20246;-67
2023/02/19 01:57:53;;;;;;;5.00;4.70;;;;;;;6.21;100.00;97273.19;4993353;28;20701;-65
2023/02/19 02:00:23;;;;;;;4.80;4.50;;;;;;;6.17;100.00;97274.50;5001369;28;20201;-64
2023/02/19 02:02:52;;;;;;;4.27;3.97;;;;;;;6.16;100.00;97272.00;4954555;28;20232;-64
2023/02/19 02:05:29;;;;;;;4.20;3.90;;;;;;;6.14;100.00;97268.69;4999151;28;20245;-66
2023/02/19 02:10:44;;;;;;;4.13;3.83;;;;;;;6.19;100.00;97262.00;4950184;28;20977;-64
2023/02/19 02:13:11;;;;;;;3.80;3.57;;;;;;;6.11;100.00;97242.69;4997799;28;20545;-64
2023/02/19 02:15:45;;;;;;;3.20;3.00;;;;;;;6.18;100.00;97249.00;4984802;28;20993;-64
2023/02/19 02:18:20;;;;;;;3.07;2.90;;;;;;;6.22;100.00;97247.69;4955556;28;20677;-64
2023/02/19 02:21:02;;;;;;;2.40;2.30;;;;;;;6.20;100.00;97233.88;4998353;28;20200;-64
2023/02/19 02:23:38;;;;;;;2.90;2.73;;;;;;;6.21;100.00;97225.00;4990077;28;21146;-64
2023/02/19 02:26:10;;;;;;;2.57;2.37;;;;;;;6.19;100.00;97229.59;4979577;28;20727;-65
2023/02/19 02:29:13;;;;;;;2.30;2.20;;;;;;;6.17;100.00;97228.91;4996287;28;20311;-65
2023/02/19 02:31:44;;;;;;;2.00;1.90;;;;;;;6.19;100.00;97224.31;4974440;28;20213;-64
2023/02/19 02:34:15;;;;;;;2.03;1.93;;;;;;;6.24;100.00;97219.41;4951196;28;20251;-65
2023/02/19 02:36:45;;;;;;;1.77;1.77;;;;;;;6.20;100.00;97210.19;4992299;28;20903;-64
2023/02/19 02:39:15;;;;;;;2.20;2.10;;;;;;;6.21;100.00;97203.94;4996050;28;20208;-65
2023/02/19 02:41:45;;;;;;;1.40;1.40;;;;;;;6.16;100.00;97193.06;4979162;28;20278;-64
2023/02/19 02:44:13;;;;;;;1.20;1.20;;;;;;;6.20;100.00;97202.28;4995912;28;20224;-64
2023/02/19 02:46:44;;;;;;;1.00;1.00;;;;;;;6.18;100.00;97184.06;4968720;28;20310;-64
2023/02/19 02:49:16;;;;;;;1.20;1.20;;;;;;;6.16;100.00;97193.06;4947281;28;20209;-64
2023/02/19 02:51:47;;;;;;;1.30;1.30;;;;;;;6.22;100.00;97200.34;4991576;28;20213;-64
2023/02/19 02:57:04;;;;;;;1.33;1.33;;;;;;;6.19;100.00;97204.13;4965603;28;23632;-64
2023/02/19 02:59:34;;;;;;;1.10;1.10;;;;;;;6.23;100.00;97200.19;4998443;28;20319;-64
2023/02/19 03:02:12;;;;;;;1.70;0.97;;;;;;;6.26;100.00;97188.53;4991449;28;20469;-64
2023/02/19 03:07:41;;;;;;;1.07;1.07;;;;;;;6.27;100.00;97186.72;4972376;28;20397;-64
2023/02/19 03:10:12;;;;;;;0.70;0.70;;;;;;;6.27;100.00;97184.94;5005010;28;20398;-64
2023/02/19 03:21:02;;;;;;;0.80;0.80;;;;;;;6.25;100.00;97170.25;4950739;28;20298;-64
2023/02/19 03:26:19;;;;;;;0.60;0.60;;;;;;;6.22;100.00;97176.66;5002203;28;20209;-64
2023/02/19 03:31:33;;;;;;;0.70;0.70;;;;;;;6.24;100.00;97174.69;4991973;28;20197;-66
2023/02/19 03:34:05;;;;;;;0.70;0.70;;;;;;;6.22;100.00;97172.22;5001358;28;20319;-67
2023/02/19 03:36:36;;;;;;;0.60;0.60;;;;;;;6.26;100.00;97178.03;4954023;28;20926;-64
2023/02/19 03:39:06;;;;;;;0.70;0.70;;;;;;;6.21;100.00;97164.47;4999395;28;20374;-66
2023/02/19 03:41:36;;;;;;;0.70;0.70;;;;;;;6.26;100.00;97164.88;4997993;28;20516;-64
2023/02/19 03:44:09;;;;;;;0.73;0.73;;;;;;;6.25;100.00;97160.59;4975613;28;20852;-65
2023/02/19 03:46:44;;;;;;;0.60;0.60;;;;;;;6.26;100.00;97153.50;4998434;28;20215;-64
2023/02/19 03:49:20;;;;;;;0.67;0.60;;;;;;;6.24;100.00;97166.78;4995166;28;20195;-65
2023/02/19 03:51:50;;;;;;;0.60;0.60;;;;;;;6.22;100.00;97164.34;4954926;28;20609;-64
2023/02/19 03:54:20;;;;;;;0.60;0.60;;;;;;;6.27;100.00;97155.16;4995726;28;20228;-66
2023/02/19 03:56:50;;;;;;;0.70;0.70;;;;;;;6.25;100.00;97144.78;4996856;28;20212;-64
2023/02/19 03:59:22;;;;;;;1.07;0.83;;;;;;;6.23;100.00;97139.69;5005136;28;20554;-66
2023/02/19 04:01:54;;;;;;;0.60;0.60;;;;;;;6.23;100.00;97146.72;4971658;28;21176;-64
2023/02/19 04:04:25;;;;;;;0.60;0.60;;;;;;;6.22;100.00;97139.81;4992746;28;20279;-64
2023/02/19 04:06:55;;;;;;;0.70;0.70;;;;;;;6.17;100.00;97134.22;4943974;28;20417;-65
2023/02/19 04:09:25;;;;;;;0.60;0.60;;;;;;;6.20;100.00;97136.53;4999350;28;20238;-66
2023/02/19 04:11:54;;;;;;;0.60;0.60;;;;;;;6.21;100.00;97139.00;4967345;28;20201;-64
2023/02/19 04:14:24;;;;;;;0.60;0.60;;;;;;;6.21;100.00;97136.38;4996109;28;20224;-64
2023/02/19 04:17:01;;;;;;;0.60;0.60;;;;;;;6.20;100.00;97139.16;4970962;28;20661;-65
2023/02/19 04:19:33;;;;;;;0.50;0.50;;;;;;;6.28;100.00;97141.84;4995576;28;20223;-65
2023/02/19 04:22:01;;;;;;;0.60;0.60;;;;;;;6.26;100.00;97140.34;4952442;28;20593;-63
2023/02/19 04:24:32;;;;;;;0.47;0.47;;;;;;;6.27;100.00;97142.00;4999020;28;20220;-65
2023/02/19 04:27:00;;;;;;;0.60;0.60;;;;;;;6.27;100.00;97147.25;4997420;28;20599;-65
2023/02/19 04:29:27;;;;;;;0.70;0.70;;;;;;;6.29;100.00;97143.50;4994911;28;20515;-65
2023/02/19 04:31:55;;;;;;;0.77;0.77;;;;;;;6.33;100.00;97149.25;4978331;28;20208;-63
2023/02/19 04:34:23;;;;;;;0.83;0.60;;;;;;;6.28;100.00;97139.22;4998187;28;20228;-64
2023/02/19 04:36:51;;;;;;;0.60;0.60;;;;;;;6.36;100.00;97141.03;4949478;28;20451;-66
2023/02/19 04:39:19;;;;;;;0.60;0.60;;;;;;;6.33;100.00;97149.25;4994420;28;20231;-63
2023/02/19 04:41:47;;;;;;;0.60;0.60;;;;;;;6.37;100.00;97150.56;5001872;28;20223;-65
2023/02/19 04:44:14;;;;;;;0.70;0.70;;;;;;;6.35;100.00;97148.13;4998191;28;20223;-63
2023/02/19 04:46:42;;;;;;;0.80;0.80;;;;;;;6.37;100.00;97143.53;4972381;28;21162;-64
2023/02/19 04:49:09;;;;;;;0.77;0.77;;;;;;;6.38;100.00;97152.22;4999594;28;20535;-63
2023/02/19 04:51:38;;;;;;;0.70;0.70;;;;;;;6.37;100.00;97147.94;4952260;28;20951;-66
2023/02/19 04:54:07;;;;;;;1.03;1.03;;;;;;;6.41;100.00;97145.84;4998236;28;20232;-65
2023/02/19 04:56:35;;;;;;;1.00;1.00;;;;;;;6.41;100.00;97157.16;4993993;28;20407;-64
2023/02/19 04:59:02;;;;;;;1.00;1.00;;;;;;;6.37;100.00;97143.53;4994872;28;20566;-65
2023/02/19 05:01:30;;;;;;;1.17;1.17;;;;;;;6.38;100.00;97149.59;4968755;28;20213;-66
2023/02/19 05:03:57;;;;;;;1.10;1.10;;;;;;;6.44;100.00;97150.78;4952397;28;21216;-63
2023/02/19 05:06:26;;;;;;;1.20;1.20;;;;;;;6.45;100.00;97148.00;4996394;28;20235;-61
2023/02/19 05:08:54;;;;;;;1.40;1.40;;;;;;;6.53;100.00;97170.88;4961290;28;20312;-63
2023/02/19 05:11:23;;;;;;;1.40;1.30;;;;;;;6.42;100.00;97158.00;5002601;28;20204;-66
2023/02/19 05:13:51;;;;;;;0.80;0.80;;;;;;;6.32;100.00;97139.72;4998571;28;20311;-66
2023/02/19 05:16:18;;;;;;;1.40;1.40;;;;;;;6.31;100.00;97159.09;5000300;28;20193;-67
2023/02/19 05:18:46;;;;;;;1.00;1.00;;;;;;;6.28;100.00;97160.25;4984440;28;20662;-66
2023/02/19 05:21:14;;;;;;;1.20;1.20;;;;;;;6.20;100.00;97145.25;4996134;28;20215;-65
2023/02/19 05:23:42;;;;;;;1.20;1.20;;;;;;;6.24;100.00;97164.16;4941764;28;20237;-64
2023/02/19 05:26:14;;;;;;;1.00;1.00;;;;;;;6.26;100.00;97166.66;5003212;28;20316;-67
2023/02/19 05:28:43;;;;;;;1.20;1.20;;;;;;;6.23;100.00;97165.16;5002330;28;20291;-65
2023/02/19 05:31:11;;;;;;;1.20;1.20;;;;;;;6.24;100.00;97169.44;5004442;28;20572;-67
2023/02/19 05:33:41;;;;;;;1.33;1.33;;;;;;;6.26;100.00;97172.75;4979567;28;20228;-65
2023/02/19 05:36:11;;;;;;;1.37;1.37;;;;;;;6.22;100.00;97172.22;4994806;28;20193;-65
2023/02/19 05:38:40;;;;;;;1.60;1.50;;;;;;;6.25;100.00;97165.00;4948957;28;20222;-65
2023/02/19 05:41:09;;;;;;;1.50;1.40;;;;;;;6.28;100.00;97164.69;5001057;28;20227;-65
2023/02/19 05:43:38;;;;;;;1.40;1.40;;;;;;;6.23;100.00;97160.72;5000573;28;20315;-65
2023/02/19 05:46:07;;;;;;;1.67;1.60;;;;;;;6.24;100.00;97166.78;4996624;28;20598;-67
2023/02/19 05:48:35;;;;;;;1.50;1.50;;;;;;;6.27;100.00;97157.78;5000892;28;20208;-64
2023/02/19 05:51:03;;;;;;;1.70;1.60;;;;;;;6.28;100.00;97155.00;4981288;28;20216;-67
2023/02/19 05:53:31;;;;;;;1.80;1.80;;;;;;;6.27;100.00;97169.13;4955792;28;20311;-63
2023/02/19 05:55:59;;;;;;;2.00;1.90;;;;;;;6.30;100.00;97162.72;4997400;28;20464;-64
2023/02/19 05:58:27;;;;;;;1.80;1.80;;;;;;;6.35;100.00;97161.28;5006115;28;20201;-64
2023/02/19 06:00:54;;;;;;;2.13;2.03;;;;;;;6.34;100.00;97159.63;4995772;28;20406;-65
2023/02/19 06:03:24;;;;;;;2.13;2.00;;;;;;;6.31;100.00;97162.59;4981657;28;20232;-65
2023/02/19 06:05:52;;;;;;;2.30;2.20;;;;;;;6.28;100.00;97168.16;5000079;28;20409;-66
2023/02/19 06:08:19;;;;;;;2.20;2.10;;;;;;;6.27;100.00;97174.41;4975744;28;20219;-68
2023/02/19 06:10:47;;;;;;;2.30;2.20;;;;;;;6.23;100.00;97168.63;5009158;28;20237;-65
2023/02/19 06:13:15;;;;;;;1.67;1.60;;;;;;;6.17;100.00;97177.13;5026040;28;20218;-67
2023/02/19 06:15:44;;;;;;;2.20;2.10;;;;;;;6.22;100.00;97177.50;5020087;28;20203;-67
2023/02/19 06:18:11;;;;;;;2.33;2.13;;;;;;;6.28;100.00;97186.56;4994703;28;20234;-66
2023/02/19 06:20:40;;;;;;;2.50;2.40;;;;;;;6.28;100.00;97191.00;5027045;28;20210;-67
2023/02/19 06:23:08;;;;;;;2.27;2.17;;;;;;;6.18;100.00;97196.38;4953339;28;20303;-68
2023/02/19 06:25:36;;;;;;;2.53;2.43;;;;;;;6.17;100.00;97190.28;4993305;28;20227;-66
2023/02/19 06:28:03;;;;;;;2.30;2.20;;;;;;;6.22;100.00;97188.00;5005811;28;20603;-65
2023/02/19 06:30:31;;;;;;;2.40;2.30;;;;;;;6.26;100.00;97199.06;5025646;28;20205;-65
2023/02/19 06:32:58;;;;;;;2.70;2.60;;;;;;;6.29;100.00;97205.81;5019719;28;20228;-65
2023/02/19 06:35:26;;;;;;;2.60;2.50;;;;;;;6.31;100.00;97206.47;5018840;28;20882;-66
2023/02/19 06:37:55;;;;;;;2.60;2.50;;;;;;;6.31;100.00;97201.22;4999662;28;20204;-64
2023/02/19 06:40:22;;;;;;;2.33;2.23;;;;;;;6.25;100.00;97189.53;4963627;28;20219;-66
2023/02/19 06:42:50;;;;;;;2.80;2.70;;;;;;;6.34;100.00;97183.31;5023455;28;20555;-65
2023/02/19 06:45:18;;;;;;;2.67;2.57;;;;;;;6.33;100.00;97199.25;5021537;28;20325;-67
2023/02/19 06:47:45;;;;;;;2.83;2.73;;;;;;;6.29;100.00;97185.59;5023827;28;20258;-65
2023/02/19 06:50:13;;;;;;;2.60;2.50;;;;;;;6.33;100.00;97189.56;5021039;28;20300;-66
2023/02/19 06:52:40;;;;;;;2.63;2.53;;;;;;;6.31;100.00;97196.78;5021955;28;20223;-67
2023/02/19 06:55:10;;;;;;;2.90;2.80;;;;;;;6.33;100.00;97193.97;4956268;28;21574;-66
2023/02/19 06:57:38;;;;;;;2.57;2.47;;;;;;;6.35;100.00;97197.28;5013366;28;20214;-64
2023/02/19 07:00:06;;;;;;;3.07;2.97;;;;;;;6.39;100.00;97197.81;5021782;28;20771;-63
2023/02/19 07:02:34;;;;;;;3.63;3.30;;;;;;;6.36;100.00;97193.66;5028632;28;20216;-65
2023/02/19 07:05:01;;;;;;;2.73;2.63;;;;;;;6.45;100.00;97205.06;5017348;28;20316;-63
2023/02/19 07:07:29;;;;;;;2.60;2.50;;;;;;;6.43;100.00;97205.22;5020102;28;20777;-65
2023/02/19 07:09:57;;;;;;;3.63;3.37;;;;;;;6.46;100.00;97207.56;4964948;28;20217;-63
2023/02/19 07:12:26;;;;;;;3.53;3.33;;;;;;;6.51;100.00;97205.28;5007533;28;20230;-65
2023/02/19 07:14:54;;;;;;;2.90;2.80;;;;;;;6.52;100.00;97235.03;5015698;28;20238;-63
2023/02/19 07:17:21;;;;;;;2.70;2.60;;;;;;;6.50;100.00;97224.69;5018710;28;21318;-64
2023/02/19 07:19:49;;;;;;;2.80;2.70;;;;;;;6.50;100.00;97222.06;4996344;28;20222;-63
2023/02/19 07:22:16;;;;;;;2.77;2.67;;;;;;;6.48;100.00;97226.66;5018821;28;20423;-64
2023/02/19 07:24:44;;;;;;;2.60;2.50;;;;;;;6.51;100.00;97233.38;4993697;28;20230;-63
2023/02/19 07:27:14;;;;;;;3.33;3.13;;;;;;;6.50;100.00;97237.84;4998427;28;20255;-65
2023/02/19 07:29:43;;;;;;;2.83;2.73;;;;;;;6.56;100.00;97230.31;5010470;28;20218;-63
2023/02/19 07:32:10;;;;;;;2.97;2.87;;;;;;;6.60;100.00;97242.16;5017715;28;20484;-64
2023/02/19 07:34:38;;;;;;;3.07;2.87;;;;;;;6.61;100.00;97242.00;5024159;28;20238;-62
2023/02/19 07:37:06;;;;;;;2.40;2.30;;;;;;;6.63;100.00;97236.56;5015156;28;20203;-63
2023/02/19 07:39:33;;;;;;;2.70;2.60;;;;;;;6.65;100.00;97238.09;4996287;28;20774;-63
2023/02/19 07:42:01;;;;;;;2.37;2.27;;;;;;;6.68;100.00;97231.66;4974190;28;20276;-63
2023/02/19 07:44:28;;;;;;;2.80;2.70;;;;;;;6.69;100.00;97235.13;5006271;28;20203;-65
2023/02/19 07:46:57;;;;;;;2.50;2.40;;;;;;;6.72;100.00;97240.09;5002935;28;20234;-62
2023/02/19 07:49:25;;;;;;;2.83;2.73;;;;;;;6.75;100.00;97243.22;5023089;28;20358;-64
2023/02/19 07:51:52;;;;;;;2.73;2.63;;;;;;;6.75;100.00;97250.28;4997242;28;20207;-63
2023/02/19 07:54:20;;;;;;;2.80;2.70;;;;;;;6.77;100.00;97253.59;4995990;28;20747;-65
2023/02/19 07:56:48;;;;;;;2.50;2.40;;;;;;;6.71;100.00;97239.25;5004440;28;20255;-63
2023/02/19 07:59:18;;;;;;;2.90;2.80;;;;;;;6.79;100.00;97251.63;5000121;28;20444;-64
2023/02/19 08:04:32;;;;;;;2.70;2.50;;;;;;;6.82;100.00;97259.22;5015272;28;20417;-65
2023/02/19 08:07:00;;;;;;;2.47;2.30;;;;;;;6.86;100.00;97273.72;5012479;28;20232;-63
2023/02/19 08:09:27;;;;;;;2.23;2.13;;;;;;;6.78;100.00;97271.84;5021874;28;20203;-65
2023/02/19 08:14:40;;;;;;;2.73;2.60;;;;;;;6.85;100.00;97260.72;4984565;28;20263;-63
2023/02/19 08:17:08;;;;;;;2.50;2.40;;;;;;;6.90;100.00;97274.22;5006312;28;20196;-67
2023/02/19 08:19:37;;;;;;;2.13;2.03;;;;;;;6.94;100.00;97279.00;5026328;28;20205;-67
2023/02/19 08:22:04;;;;;;;2.23;2.13;;;;;;;6.93;100.00;97277.34;5025066;28;20522;-68
2023/02/19 08:24:32;;;;;;;3.17;2.97;;;;;;;6.95;100.00;97277.22;5016779;28;20203;-66
2023/02/19 08:27:00;;;;;;;2.20;2.10;;;;;;;6.97;100.00;97269.13;4979010;28;20253;-63
2023/02/19 08:29:28;;;;;;;2.33;2.23;;;;;;;7.07;100.00;97278.56;4960001;28;20627;-63
2023/02/19 08:31:55;;;;;;;2.10;2.00;;;;;;;7.18;100.00;97276.63;5000192;28;20231;-63
2023/02/19 08:34:23;;;;;;;2.27;2.17;;;;;;;7.09;100.00;97281.06;4988924;28;20258;-63
2023/02/19 08:36:52;;;;;;;2.87;1.90;;;;;;;7.09;100.00;97286.31;4994994;28;21706;-63
2023/02/19 08:39:19;;;;;;;1.70;1.67;;;;;;;7.27;100.00;97286.22;5012426;28;20562;-63
2023/02/19 08:41:47;;;;;;;1.57;1.47;;;;;;;7.28;100.00;97279.13;5001210;28;20232;-64
2023/02/19 08:44:15;;;;;;;1.50;1.50;;;;;;;7.28;100.00;97276.50;4989526;28;20223;-64
2023/02/19 08:46:43;;;;;;;1.50;1.50;;;;;;;7.31;100.00;97270.88;4999290;28;21126;-66
2023/02/19 08:49:11;;;;;;;1.40;1.40;;;;;;;7.30;100.00;97279.78;5021488;28;20206;-64
2023/02/19 08:51:38;;;;;;;1.33;1.33;;;;;;;7.30;100.00;97277.16;5003855;28;20505;-66
2023/02/19 08:54:07;;;;;;;1.50;1.50;;;;;;;7.28;100.00;97274.69;5008023;28;20259;-64
2023/02/19 08:56:35;;;;;;;1.53;1.53;;;;;;;7.28;100.00;97289.66;5003986;28;20944;-64
2023/02/19 08:59:02;;;;;;;1.20;1.20;;;;;;;7.26;100.00;97286.38;5007848;28;20440;-63
2023/02/19 09:01:30;;;;;;;1.30;1.30;;;;;;;7.27;100.00;97293.28;4958658;28;20838;-64
2023/02/19 09:03:58;;;;;;;1.47;1.47;;;;;;;7.31;100.00;97287.53;5004458;28;20228;-64
2023/02/19 09:06:25;;;;;;;1.50;1.50;;;;;;;7.37;100.00;97291.31;5002200;28;20196;-63
2023/02/19 09:08:54;;;;;;;1.10;1.10;;;;;;;7.44;100.00;97296.78;5019045;28;20224;-64
2023/02/19 09:11:22;;;;;;;1.30;1.30;;;;;;;7.41;100.00;97297.97;5022632;28;20305;-63
2023/02/19 09:13:50;;;;;;;1.23;1.23;;;;;;;7.41;100.00;97291.84;5005145;28;20234;-65
2023/02/19 09:16:18;;;;;;;1.57;1.47;;;;;;;7.44;100.00;97291.53;4956886;28;20204;-64
2023/02/19 09:18:45;;;;;;;1.33;1.33;;;;;;;7.38;100.00;97295.63;5012429;28;20211;-66
2023/02/19 09:21:13;;;;;;;1.80;1.70;;;;;;;7.39;100.00;97297.28;5018555;28;20196;-64
2023/02/19 09:23:41;;;;;;;1.50;1.50;;;;;;;7.32;100.00;97306.81;5012015;28;20339;-65
2023/02/19 09:26:10;;;;;;;2.10;2.00;;;;;;;7.31;100.00;97294.63;5022253;28;20536;-64
2023/02/19 09:28:40;;;;;;;1.73;1.67;;;;;;;7.33;100.00;97311.94;5003603;28;20474;-64
2023/02/19 09:31:09;;;;;;;1.57;1.47;;;;;;;7.32;100.00;97312.06;4959330;28;20212;-64
2023/02/19 09:33:38;;;;;;;1.20;1.20;;;;;;;7.33;100.00;97308.44;5010802;28;20553;-65
2023/02/19 09:36:06;;;;;;;1.30;1.30;;;;;;;7.33;100.00;97319.00;5010226;28;20196;-64
2023/02/19 09:38:34;;;;;;;1.13;1.13;;;;;;;7.43;100.00;97316.22;4975303;28;20204;-62
2023/02/19 09:41:06;;;;;;;1.10;1.10;;;;;;;7.42;100.00;97319.84;5024101;28;20405;-65
2023/02/19 09:43:34;;;;;;;1.23;1.23;;;;;;;7.41;100.00;97303.22;5017722;28;20219;-64
2023/02/19 09:46:09;;;;;;;1.57;1.53;;;;;;;7.70;100.00;97330.16;4966184;28;20446;-66
2023/02/19 09:48:37;;;;;;;1.53;1.43;;;;;;;7.68;100.00;97312.69;5019838;28;20227;-64
2023/02/19 09:51:06;;;;;;;1.10;1.10;;;;;;;7.86;100.00;97353.09;5011639;28;20762;-66
2023/02/19 09:53:40;;;;;;;1.17;1.17;;;;;;;7.81;100.00;97332.47;4981203;28;20216;-64
2023/02/19 09:56:08;;;;;;;2.23;1.63;;;;;;;7.93;100.00;97333.78;5005084;28;20306;-66
2023/02/19 09:58:45;;;;;;;1.17;1.17;;;;;;;8.00;100.00;97327.88;5003012;28;20603;-64
2023/02/19 10:01:15;;;;;;;1.10;1.10;;;;;;;8.22;100.00;97337.78;4947939;28;20217;-63
2023/02/19 10:03:45;;;;;;;1.33;1.33;;;;;;;8.08;100.00;97341.88;4993809;28;20657;-64
2023/02/19 10:06:19;;;;;;;0.87;0.87;;;;;;;8.09;100.00;97348.81;5000131;28;20239;-66
2023/02/19 10:08:47;;;;;;;2.40;0.90;;;;;;;8.21;100.00;97346.69;4977576;28;20261;-64
2023/02/19 10:11:15;;;;;;;0.97;0.93;;;;;;;8.11;100.00;97352.13;5015079;28;20200;-65
2023/02/19 10:13:45;;;;;;;1.00;1.00;;;;;;;7.95;100.00;97357.38;5013947;28;20251;-64
2023/02/19 10:16:17;;;;;;;1.20;1.20;;;;;;;7.92;100.00;97355.06;4989976;28;20800;-64
2023/02/19 10:18:46;;;;;;;1.20;1.20;;;;;;;7.95;100.00;97355.59;4949804;28;20212;-64
2023/02/19 10:21:18;;;;;;;1.10;1.10;;;;;;;8.08;100.00;97364.81;4979284;28;20245;-64
2023/02/19 10:23:47;;;;;;;1.00;1.00;;;;;;;8.00;100.00;97363.00;4978879;28;20227;-65
2023/02/19 10:26:15;;;;;;;1.20;1.20;;;;;;;7.87;100.00;97350.28;5019909;28;20273;-64
2023/02/19 10:28:42;;;;;;;1.87;1.77;;;;;;;7.74;100.00;97363.13;5011808;28;20252;-64
2023/02/19 10:31:22;;;;;;;1.93;1.67;;;;;;;7.78;100.00;97357.38;4997608;28;20232;-63
2023/02/19 10:33:51;;;;;;;1.40;1.40;;;;;;;7.82;100.00;97360.50;4923841;28;20318;-64
2023/02/19 10:36:25;;;;;;;1.53;1.47;;;;;;;7.85;100.00;97367.28;4992216;28;20201;-66
2023/02/19 10:38:53;;;;;;;1.73;1.63;;;;;;;7.87;100.00;97357.38;4977214;28;20232;-64
2023/02/19 10:41:22;;;;;;;1.13;1.13;;;;;;;7.89;100.00;97356.22;4994818;28;20212;-66
2023/02/19 10:43:52;;;;;;;1.60;1.50;;;;;;;7.94;100.00;97368.94;4995317;28;20748;-64
2023/02/19 10:46:23;;;;;;;1.60;1.50;;;;;;;7.95;100.00;97368.78;4993489;28;20204;-64
2023/02/19 10:48:52;;;;;;;1.40;1.40;;;;;;;7.89;100.00;97361.50;4955718;28;20942;-65
2023/02/19 10:51:21;;;;;;;1.63;1.53;;;;;;;7.75;100.00;97356.84;4997777;28;20204;-64
2023/02/19 10:53:50;;;;;;;1.70;1.60;;;;;;;7.82;100.00;97378.97;4997179;28;20224;-64
2023/02/19 10:56:24;;;;;;;1.80;1.70;;;;;;;7.84;100.00;97381.44;4974653;28;20205;-65
2023/02/19 10:58:51;;;;;;;4.60;1.60;;;;;;;7.80;100.00;97380.94;5004390;28;20212;-66
2023/02/19 11:01:20;;;;;;;2.00;1.90;;;;;;;7.82;100.00;97378.97;4994331;28;20206;-65
2023/02/19 11:03:52;;;;;;;1.60;1.60;;;;;;;7.85;100.00;97383.09;4954068;28;20254;-63
2023/02/19 11:06:21;;;;;;;1.73;1.63;;;;;;;7.80;100.00;97392.31;4992295;28;20197;-64
2023/02/19 11:08:51;;;;;;;1.40;1.40;;;;;;;7.69;100.00;97389.97;4997227;28;20239;-64
2023/02/19 11:11:24;;;;;;;1.30;1.30;;;;;;;7.63;100.00;97385.34;4985326;28;20442;-65
2023/02/19 11:13:53;;;;;;;1.97;1.97;;;;;;;7.61;100.00;97384.69;4996253;28;20601;-66
2023/02/19 11:16:21;;;;;;;3.33;2.20;;;;;;;7.61;100.00;97397.84;4991076;28;20201;-64
2023/02/19 11:18:56;;;;;;;2.00;1.90;;;;;;;7.44;100.00;97395.19;4951632;28;20201;-63
2023/02/19 11:21:27;;;;;;;2.90;2.33;;;;;;;7.29;100.00;97394.09;5001261;28;20196;-64
2023/02/19 11:23:55;;;;;;;2.83;2.13;;;;;;;7.28;100.00;97413.53;4995350;28;20426;-64
2023/02/19 11:26:25;;;;;;;2.30;2.10;;;;;;;7.22;100.00;97397.38;4978730;28;20340;-66
2023/02/19 11:28:56;;;;;;;2.77;2.37;;;;;;;7.22;100.00;97413.19;4996387;28;20247;-67
2023/02/19 11:31:25;;;;;;;2.17;2.07;;;;;;;7.21;100.00;97411.53;4997503;28;20240;-67
2023/02/19 11:33:56;;;;;;;2.50;1.90;;;;;;;7.18;100.00;97413.66;4992382;28;20228;-66
2023/02/19 11:36:32;;;;;;;1.97;1.87;;;;;;;7.11;100.00;97408.19;4953740;28;20231;-66
2023/02/19 11:39:15;;;;;;;2.40;2.20;;;;;;;7.17;100.00;97412.84;4996923;28;20212;-67
2023/02/19 11:42:11;;;;;;;3.30;2.53;;;;;;;7.20;100.00;97401.97;4979325;28;20684;-65
2023/02/19 11:44:47;;;;;;;4.50;2.20;;;;;;;7.34;100.00;97408.47;4993588;28;20744;-65
2023/02/19 11:47:34;;;;;;;2.63;2.43;;;;;;;7.33;100.00;97403.34;4995467;28;20632;-65
2023/02/19 11:50:10;;;;;;;3.67;2.43;;;;;;;7.39;100.00;97402.75;4949910;28;20912;-67
2023/02/19 11:52:43;;;;;;;2.23;2.13;;;;;;;7.52;100.00;97404.91;4999335;28;20224;-65
2023/02/19 11:55:17;;;;;;;3.33;2.27;;;;;;;7.75;100.00;97405.16;5000042;28;20286;-66
2023/02/19 11:57:47;;;;;;;2.23;2.13;;;;;;;7.70;100.00;97404.00;4978205;28;20270;-65
2023/02/19 12:00:21;;;;;;;2.77;2.57;;;;;;;7.56;100.00;97400.97;4997667;28;20197;-67
2023/02/19 12:03:17;;;;;;;2.20;2.10;;;;;;;7.62;100.00;97402.16;4994121;28;20233;-65
2023/02/19 12:05:54;;;;;;;2.60;2.40;;;;;;;7.62;100.00;97400.34;4959157;28;20204;-65
2023/02/19 12:08:37;;;;;;;2.37;2.13;;;;;;;7.75;100.00;97425.44;4995953;28;20970;-66
2023/02/19 12:11:14;;;;;;;1.87;1.77;;;;;;;7.76;100.00;97416.53;4997179;28;20193;-67
2023/02/19 12:13:54;;;;;;;2.30;2.20;;;;;;;7.74;100.00;97418.50;4980389;28;20263;-65